KDGW/DGW METAR and TAF weather

Enter ICAO airport designator
Station Type Date Time Source
KDGW METAR 2019/06/20 07:53 UTC NOAA

KDGW 200753Z AUTO 27006KT 10SM FEW055 09/07 A2987 RMK AO2 SLP068 T00890067


Station Type Date Time Source
KDGW Decoded METAR 2019/06/20 07:53 UTC NOAA

DOUGLAS CONVERSE COUNTY, WY, United States (KDGW) 42-48N 105-23W 1499M
Jun 20, 2019 - 03:53 AM EDT / 2019.06.20 0753 UTC
Wind: from the W (270 degrees) at 7 MPH (6 KT):0
Visibility: 10 mile(s):0
Sky conditions: mostly clear
Temperature: 48.0 F (8.9 C)
Dew Point: 44.1 F (6.7 C)
Relative Humidity: 86%
Pressure (altimeter): 29.87 in. Hg (1011 hPa)
ob: KDGW 200753Z AUTO 27006KT 10SM FEW055 09/07 A2987 RMK AO2 SLP068 T00890067
cycle: 8

Station Type Date Time Source
KDGW TAF UTC NOAA

Error!

Example: see airport list